NCAR-RAP Real-Time Weather Data

Output produced by METARs form (23 June 2018  19:38 UTC)
found at http://weather.rap.ucar.edu/surface/
 
RJCW 230900Z 19011KT 9999 FEW008 BKN010 17/14 Q0995
RJCW 230800Z 20011KT 9999 FEW008 BKN010 17/15 Q0994
RJCW 230730Z 20011KT 9999 FEW007 SCT008 BKN010 17/15 Q0995 RMK 1ST007 4ST008 6ST010 A2938
RJCW 230700Z 19010KT 9999 FEW007 BKN008 BKN080 17/15 Q0994
RJCW 230600Z 20016KT 9999 FEW010 BKN080 16/14 Q0994
RJCW 230500Z 22017KT 9999 -SHRA FEW010 BKN080 16/14 Q0994
RJCW 230400Z 22017KT 9999 FEW010 BKN090 17/14 Q0994
RJCW 230300Z 22023KT 9999 FEW015 SCT100 BKN140 20/14 Q0994
RJCW 230200Z 21023G33KT 9999 FEW015 SCT100 BKN140 18/14 Q0994
RJCW 230100Z 21022KT 9999 FEW015 BKN100 17/13 Q0994
RJCW 230000Z 20023KT 9999 FEW010 BKN100 17/13 Q0994
RJCW 222330Z 19018G28KT 9999 FEW010 SCT050 BKN100 16/13 Q0994
RJCW 220900Z 20009KT 9999 FEW010 BKN050 16/13 Q0996
RJCW 220800Z 20009KT 9999 FEW010 BKN050 17/14 Q0996
RJCW 220700Z 23012KT 9999 FEW010 BKN060 17/13 Q0996
RJCW 220600Z 23013KT 9999 FEW005 SCT015 BKN045 18/14 Q0995
RJCW 220500Z 22012KT 9999 FEW005 BKN010 BKN040 17/14 Q0995
RJCW 220400Z 22014KT 9999 FEW005 SCT009 BKN010 17/14 Q0995
RJCW 220326Z 21014KT 9999 FEW004 SCT007 BKN009 16/14 Q0995 RMK 1ST004 4ST007 6ST009 A2940
RJCW 220300Z 22014KT 8000 -SHRA FEW004 SCT005 BKN006 16/14 Q0995
RJCW 220243Z 22013KT 7000 -SHRA FEW003 SCT005 BKN006 15/14 Q0996 RMK 1ST003 4ST005 6ST006 A2941
RJCW 220210Z 22014KT 6000 -SHRA FEW003 BKN005 BKN006 15/14 Q0996 RMK 1ST003 5ST005 7ST006 A2941
RJCW 220200Z 22013KT 7000 -SHRA FEW004 SCT005 BKN006 15/14 Q0996
RJCW 220138Z 21014KT 5000 -SHRA BR SCT005 BKN006 15/14 Q0996 RMK 3ST005 7ST006 A2942
RJCW 220106Z 23011KT 4900 -DZ BR FEW005 BKN006 BKN008 15/14 Q0996 RMK 2ST005 5ST006 7ST008 A2942
RJCW 220100Z 23011KT 9999 -DZ FEW005 BKN006 BKN008 15/13 Q0996
RJCW 220038Z 21013KT 9999 -DZ FEW006 BKN008 BKN009 15/13 Q0996 RMK 2ST006 5ST008 7ST009 A2942
RJCW 220000Z 22011KT 9999 -DZ FEW006 SCT008 BKN009 15/13 Q0996
RJCW 212330Z 22012KT 9999 -DZ FEW008 BKN010 BKN015 15/13 Q0996
RJCW 212320Z 22011KT 9999 FEW005 SCT008 BKN010 15/13 Q0996 RMK 1ST005 4ST008 6ST010 A2943
RJCW 210917Z 19009KT 9999 FEW005 BKN007 BKN010 16/15 Q0997 RMK 2ST005 5ST007 7ST010 A2946
RJCW 210900Z 18009KT 9999 -SHRA FEW005 SCT008 BKN100 16/16 Q0996
RJCW 210800Z 19006KT 150V220 9999 -SHRA FEW003 SCT007 BKN010 16/16 Q0997